Time;durP1;ratioP1;P1;durP2;ratioP2;P2;SDS_P1;SDS_P2;PMS_P1;PMS_P2;Temp;Humidity;BMP_temperature;BMP_pressure;BME280_temperature;BME280_humidity;BME280_pressure;Samples;Min_cycle;Max_cycle;Signal;HPM_P1;HPM_P2
2022/06/30 00:00:10;;;;;;;;;1.00;1.00;;;;;19.52;53.97;100390.31;5075940;27;46250;-65
2022/06/30 00:02:35;;;;;;;;;0.00;0.00;;;;;19.50;53.56;100381.59;5076181;28;45508;-66
2022/06/30 00:05:01;;;;;;;;;0.50;0.50;;;;;19.41;53.27;100378.69;5076196;27;45402;-67
2022/06/30 00:07:26;;;;;;;;;1.00;1.00;;;;;19.32;53.62;100371.44;5076453;27;45329;-66
2022/06/30 00:09:52;;;;;;;;;1.00;1.00;;;;;19.21;52.91;100379.47;5075902;27;45342;-66
2022/06/30 00:12:17;;;;;;;;;0.00;0.00;;;;;19.10;53.49;100372.31;5076179;27;45313;-65
2022/06/30 00:14:43;;;;;;;;;1.00;1.00;;;;;19.05;53.33;100375.31;5076173;27;45215;-64
2022/06/30 00:17:08;;;;;;;;;0.50;0.50;;;;;18.94;53.98;100375.28;5076215;28;45270;-65
2022/06/30 00:19:35;;;;;;;;;0.00;0.00;;;;;18.84;54.31;100376.03;5076044;27;45349;-65
2022/06/30 00:22:01;;;;;;;;;0.00;0.00;;;;;18.77;54.55;100382.81;5076114;27;45251;-65
2022/06/30 00:24:26;;;;;;;;;0.00;0.00;;;;;18.69;55.16;100386.09;5074604;28;45294;-65
2022/06/30 00:26:51;;;;;;;;;1.75;1.75;;;;;18.64;55.09;100393.56;5075851;27;45625;-65
2022/06/30 00:29:17;;;;;;;;;0.50;0.50;;;;;18.59;55.44;100378.91;5076053;27;46135;-65
2022/06/30 00:31:42;;;;;;;;;0.00;0.00;;;;;18.56;55.83;100385.34;5075593;27;45442;-66
2022/06/30 00:34:07;;;;;;;;;0.00;0.00;;;;;18.47;56.61;100386.00;5075739;28;45447;-65
2022/06/30 00:36:33;;;;;;;;;1.00;1.00;;;;;18.35;56.87;100387.81;5076015;27;45357;-67
2022/06/30 00:38:58;;;;;;;;;1.00;1.00;;;;;18.30;57.01;100398.81;5075603;28;45465;-67
2022/06/30 00:41:23;;;;;;;;;1.00;1.00;;;;;18.24;57.13;100397.47;5075601;28;45434;-66
2022/06/30 00:43:49;;;;;;;;;10.50;9.25;;;;;18.24;57.19;100402.81;5076032;28;45545;-64
2022/06/30 00:46:15;;;;;;;;;0.00;0.00;;;;;18.22;57.09;100403.88;5075800;27;45340;-65
2022/06/30 00:48:43;;;;;;;;;1.00;1.00;;;;;18.16;56.91;100396.34;5075428;27;46565;-66
2022/06/30 00:51:09;;;;;;;;;0.00;0.00;;;;;18.15;56.69;100411.47;5075309;28;45381;-65
2022/06/30 00:53:36;;;;;;;;;0.00;0.00;;;;;18.12;56.14;100400.19;5075461;27;45234;-64
2022/06/30 00:56:06;;;;;;;;;0.75;0.75;;;;;18.06;55.90;100398.88;5075552;27;45401;-65
2022/06/30 00:58:40;;;;;;;;;1.00;1.00;;;;;18.00;55.56;100401.91;5075084;27;46710;-65
2022/06/30 01:01:10;;;;;;;;;0.00;0.00;;;;;17.93;56.20;100397.06;5075357;27;45457;-64
2022/06/30 01:03:35;;;;;;;;;1.00;0.00;;;;;17.95;56.53;100386.31;5075103;27;45244;-65
2022/06/30 01:06:02;;;;;;;;;1.75;1.75;;;;;17.94;56.81;100374.81;5075982;28;45456;-64
2022/06/30 01:08:29;;;;;;;;;1.00;1.00;;;;;17.92;57.28;100366.09;5079026;27;46429;-65
2022/06/30 01:13:39;;;;;;;;;1.00;1.00;;;;;17.87;57.46;100386.88;5078869;28;45279;-66
2022/06/30 01:16:04;;;;;;;;;0.75;0.75;;;;;17.81;57.64;100371.38;5078729;27;45666;-65
2022/06/30 01:18:33;;;;;;;;;0.50;0.50;;;;;17.78;57.60;100369.78;5078967;27;46291;-67
2022/06/30 01:20:59;;;;;;;;;2.75;2.75;;;;;17.81;58.09;100385.53;5079180;27;45378;-67
2022/06/30 01:23:24;;;;;;;;;1.00;1.00;;;;;17.77;57.91;100393.84;5078980;27;45207;-64
2022/06/30 01:25:51;;;;;;;;;1.00;1.00;;;;;17.74;58.07;100394.94;5079637;27;45630;-65
2022/06/30 01:28:17;;;;;;;;;1.00;1.00;;;;;17.71;58.02;100379.19;5078907;27;46182;-66
2022/06/30 01:30:42;;;;;;;;;1.50;1.50;;;;;17.66;58.16;100382.19;5078880;27;45489;-67
2022/06/30 01:33:08;;;;;;;;;1.50;1.50;;;;;17.58;58.00;100371.25;5078609;27;45329;-66
2022/06/30 01:35:33;;;;;;;;;4.00;3.00;;;;;17.51;58.37;100362.03;5078690;27;45283;-66
2022/06/30 01:37:59;;;;;;;;;4.00;3.00;;;;;17.50;58.28;100373.63;5078328;28;45349;-65
2022/06/30 01:40:27;;;;;;;;;4.50;1.75;;;;;17.49;58.52;100390.53;5078375;28;45567;-65
2022/06/30 01:42:53;;;;;;;;;2.75;2.75;;;;;17.45;58.77;100373.94;5078920;27;45372;-66
2022/06/30 01:45:19;;;;;;;;;1.25;1.25;;;;;17.44;58.97;100369.59;5078583;27;45567;-67
2022/06/30 01:47:44;;;;;;;;;4.00;2.00;;;;;17.45;58.96;100381.09;5078429;27;45500;-65
2022/06/30 01:50:14;;;;;;;;;3.00;1.00;;;;;17.36;59.12;100383.44;5078035;27;45227;-65
2022/06/30 01:52:39;;;;;;;;;1.75;1.75;;;;;17.39;59.26;100382.38;5078296;28;45446;-64
2022/06/30 01:55:08;;;;;;;;;3.50;2.25;;;;;17.36;59.16;100387.91;5078386;28;45476;-66
2022/06/30 01:57:35;;;;;;;;;1.25;1.25;;;;;17.34;59.18;100384.50;5077997;27;46293;-65
2022/06/30 02:00:01;;;;;;;;;7.00;4.00;;;;;17.32;59.14;100381.97;5077680;27;45234;-66
2022/06/30 02:02:26;;;;;;;;;2.00;2.00;;;;;17.27;59.78;100380.59;5078011;27;45199;-67
2022/06/30 02:04:53;;;;;;;;;1.00;1.00;;;;;17.22;60.16;100379.13;5078833;27;45195;-65
2022/06/30 02:07:19;;;;;;;;;4.00;2.00;;;;;17.28;60.27;100387.59;5077983;27;45413;-66
2022/06/30 02:09:45;;;;;;;;;4.00;2.75;;;;;17.28;60.58;100390.25;5077842;27;45455;-65
2022/06/30 02:14:56;;;;;;;;;4.25;3.00;;;;;17.19;61.12;100400.59;5078408;28;45333;-64
2022/06/30 02:17:22;;;;;;;;;3.75;2.00;;;;;17.17;61.31;100391.88;5077158;27;46400;-64
2022/06/30 02:19:48;;;;;;;;;3.00;2.25;;;;;17.20;61.16;100377.53;5077621;28;45326;-64
2022/06/30 02:22:13;;;;;;;;;2.75;2.75;;;;;17.16;61.17;100373.41;5077706;27;45372;-65
2022/06/30 02:24:38;;;;;;;;;2.00;2.00;;;;;17.14;61.42;100370.00;5077901;27;45651;-66
2022/06/30 02:27:04;;;;;;;;;3.75;3.00;;;;;17.13;61.51;100369.16;5077470;27;45599;-65
2022/06/30 02:29:29;;;;;;;;;2.00;2.00;;;;;17.10;61.50;100361.38;5077579;28;45443;-63
2022/06/30 02:31:55;;;;;;;;;3.25;2.50;;;;;17.10;61.38;100361.38;5078174;27;45326;-64
2022/06/30 02:34:20;;;;;;;;;3.50;2.00;;;;;17.10;61.24;100373.84;5078062;28;45268;-65
2022/06/30 02:36:45;;;;;;;;;2.25;2.25;;;;;17.11;61.18;100370.22;5077622;27;45213;-65
2022/06/30 02:39:11;;;;;;;;;2.00;2.00;;;;;17.05;61.29;100366.19;5077520;28;51078;-64
2022/06/30 02:41:36;;;;;;;;;3.00;3.00;;;;;17.08;60.90;100380.13;5077626;28;45230;-64
2022/06/30 02:44:02;;;;;;;;;2.75;2.25;;;;;17.07;61.14;100374.91;5077766;28;45384;-64
2022/06/30 02:46:28;;;;;;;;;3.00;2.50;;;;;17.11;61.11;100384.34;5077270;27;45509;-65
2022/06/30 02:48:53;;;;;;;;;1.25;1.25;;;;;17.15;60.90;100385.84;5077567;27;45456;-66
2022/06/30 02:51:18;;;;;;;;;3.75;3.00;;;;;17.17;60.93;100388.41;5077375;27;45674;-64
2022/06/30 02:53:44;;;;;;;;;4.25;3.00;;;;;17.21;60.75;100392.53;5077612;27;45511;-66
2022/06/30 02:56:11;;;;;;;;;2.00;2.00;;;;;17.23;60.43;100395.94;5077036;28;45460;-65
2022/06/30 02:58:37;;;;;;;;;2.00;2.00;;;;;17.26;60.10;100395.72;5077264;27;45362;-65
2022/06/30 03:01:02;;;;;;;;;1.75;1.75;;;;;17.21;60.26;100376.59;5077110;28;45293;-65
2022/06/30 03:03:27;;;;;;;;;1.75;1.75;;;;;17.21;59.91;100369.44;5093485;27;45521;-65
2022/06/30 03:05:53;;;;;;;;;2.50;2.50;;;;;17.26;60.05;100377.09;5077008;28;45366;-64
2022/06/30 03:08:18;;;;;;;;;3.00;3.00;;;;;17.27;59.90;100381.47;5077208;28;45284;-66
2022/06/30 03:10:44;;;;;;;;;2.00;2.00;;;;;17.28;60.12;100392.94;5076957;28;45699;-66
2022/06/30 03:13:09;;;;;;;;;1.00;1.00;;;;;17.31;59.99;100390.91;5092685;27;45409;-64
2022/06/30 03:15:35;;;;;;;;;3.25;2.50;;;;;17.36;59.71;100390.56;5076533;27;47152;-65
2022/06/30 03:18:00;;;;;;;;;3.00;2.00;;;;;17.45;59.30;100399.69;5076787;28;45219;-64
2022/06/30 03:20:25;;;;;;;;;2.00;2.00;;;;;17.49;59.63;100387.88;5077115;27;45373;-65
2022/06/30 03:22:51;;;;;;;;;3.00;3.00;;;;;17.53;59.52;100394.66;5077139;28;45648;-65
2022/06/30 03:25:16;;;;;;;;;3.00;3.00;;;;;17.56;59.23;100391.78;5076490;27;45349;-66
2022/06/30 03:27:41;;;;;;;;;2.00;2.00;;;;;17.54;59.19;100380.41;5076573;27;45356;-65
2022/06/30 03:30:07;;;;;;;;;3.00;3.00;;;;;17.54;59.37;100371.59;5091451;27;45358;-65
2022/06/30 03:32:33;;;;;;;;;3.75;2.75;;;;;17.53;59.59;100368.06;5077341;27;45421;-65
2022/06/30 03:34:58;;;;;;;;;3.25;3.25;;;;;17.53;59.41;100376.06;5076855;27;45439;-66
2022/06/30 03:37:23;;;;;;;;;3.50;2.75;;;;;17.49;59.47;100375.41;5076620;27;45417;-66
2022/06/30 03:39:49;;;;;;;;;2.50;2.50;;;;;17.49;59.69;100387.88;5076504;27;45305;-65
2022/06/30 03:42:14;;;;;;;;;6.50;4.50;;;;;17.49;59.59;100401.19;5076645;28;45437;-66
2022/06/30 03:44:39;;;;;;;;;3.00;3.00;;;;;17.47;59.76;100397.78;5076364;27;46206;-64
2022/06/30 03:47:05;;;;;;;;;3.00;3.00;;;;;17.48;59.67;100402.97;5076233;27;45370;-66
2022/06/30 03:49:30;;;;;;;;;5.75;5.00;;;;;17.47;59.46;100413.72;5077022;27;45312;-66
2022/06/30 03:51:56;;;;;;;;;3.00;3.00;;;;;17.49;59.43;100409.16;5076868;27;45345;-66
2022/06/30 03:54:22;;;;;;;;;2.50;2.00;;;;;17.50;59.29;100402.88;5091814;27;47357;-65
2022/06/30 03:56:48;;;;;;;;;3.50;3.00;;;;;17.51;59.45;100407.22;5076188;27;45351;-65
2022/06/30 03:59:13;;;;;;;;;3.25;3.25;;;;;17.45;59.22;100399.69;5076236;28;45246;-65
2022/06/30 04:01:38;;;;;;;;;2.25;2.25;;;;;17.49;59.31;100409.16;5076382;27;45507;-64
2022/06/30 04:04:04;;;;;;;;;1.75;1.75;;;;;17.47;59.36;100405.75;5076059;28;46418;-65
2022/06/30 04:06:29;;;;;;;;;2.00;2.00;;;;;17.42;59.31;100410.56;5076505;27;45252;-65
2022/06/30 04:08:54;;;;;;;;;2.00;2.00;;;;;17.36;59.51;100407.38;5077460;27;45285;-66
2022/06/30 04:11:20;;;;;;;;;2.25;2.25;;;;;17.37;59.58;100406.41;5077446;27;45317;-67
2022/06/30 04:13:45;;;;;;;;;3.50;3.25;;;;;17.42;60.20;100411.38;5076584;27;46427;-67
2022/06/30 04:16:10;;;;;;;;;4.50;3.00;;;;;17.44;60.86;100406.81;5076078;28;45353;-65
2022/06/30 04:18:36;;;;;;;;;3.00;3.00;;;;;17.34;63.93;100398.66;5076030;28;45159;-65
2022/06/30 04:21:01;;;;;;;;;3.50;3.50;;;;;17.15;67.35;100408.91;5076447;27;45164;-65
2022/06/30 04:23:27;;;;;;;;;4.00;4.00;;;;;17.00;65.22;100403.72;5091865;27;47440;-66
2022/06/30 04:25:52;;;;;;;;;3.00;3.00;;;;;16.93;65.69;100416.53;5076384;28;45893;-66
2022/06/30 04:28:17;;;;;;;;;5.25;2.25;;;;;16.86;64.85;100423.25;5076786;28;45323;-65
2022/06/30 04:33:27;;;;;;;;;4.50;4.25;;;;;16.69;64.99;100435.00;5076157;28;45258;-66
2022/06/30 04:35:52;;;;;;;;;4.50;3.00;;;;;16.67;65.35;100436.09;5075945;28;45219;-66
2022/06/30 04:38:17;;;;;;;;;6.00;3.00;;;;;16.56;65.07;100434.16;5075618;28;45598;-65
2022/06/30 04:43:27;;;;;;;;;5.00;4.75;;;;;16.53;65.94;100444.97;5076194;28;45695;-66
2022/06/30 04:45:52;;;;;;;;;5.00;4.25;;;;;16.50;67.30;100446.88;5076082;28;45386;-66
2022/06/30 04:48:18;;;;;;;;;6.50;5.00;;;;;16.53;67.54;100439.66;5076228;27;45245;-66
2022/06/30 04:50:43;;;;;;;;;3.25;3.25;;;;;16.57;67.58;100444.69;5076100;27;45365;-66
2022/06/30 04:53:09;;;;;;;;;6.00;6.00;;;;;16.60;69.00;100440.97;5076294;28;46218;-65
2022/06/30 04:55:34;;;;;;;;;4.25;4.25;;;;;16.67;68.01;100423.66;5075964;27;45413;-65
2022/06/30 04:58:00;;;;;;;;;7.25;6.00;;;;;16.71;68.70;100424.31;5076310;27;45352;-65
2022/06/30 05:00:25;;;;;;;;;6.75;5.25;;;;;16.72;68.56;100410.91;5074651;28;45370;-65
2022/06/30 05:02:50;;;;;;;;;6.00;4.50;;;;;16.67;67.54;100407.72;5075029;27;46115;-65
2022/06/30 05:05:16;;;;;;;;;4.00;4.00;;;;;16.67;67.84;100405.06;5075654;28;45336;-66
2022/06/30 05:07:41;;;;;;;;;4.50;3.50;;;;;16.71;68.35;100389.78;5075926;27;45362;-65
2022/06/30 05:10:07;;;;;;;;;6.75;5.25;;;;;16.72;68.23;100384.34;5075828;28;45496;-64
2022/06/30 05:12:34;;;;;;;;;9.25;7.00;;;;;16.78;68.35;100389.22;5075704;27;46860;-65
2022/06/30 05:14:59;;;;;;;;;5.00;5.00;;;;;16.77;68.36;100376.06;5075364;28;45306;-65
2022/06/30 05:17:25;;;;;;;;;6.25;6.00;;;;;16.81;67.62;100377.56;5075615;28;45714;-65
2022/06/30 05:19:50;;;;;;;;;4.50;4.50;;;;;16.90;67.45;100386.66;5075523;28;45342;-65
2022/06/30 05:22:15;;;;;;;;;5.50;5.50;;;;;16.93;67.64;100392.63;5074912;27;45953;-65
2022/06/30 05:27:25;;;;;;;;;5.75;5.75;;;;;17.02;66.79;100403.59;5075193;28;45371;-66
2022/06/30 05:29:50;;;;;;;;;7.50;4.25;;;;;17.03;66.64;100400.00;5075550;27;45329;-65
2022/06/30 05:32:16;;;;;;;;;6.25;4.00;;;;;17.04;66.73;100418.50;5075009;27;47148;-66
2022/06/30 05:34:41;;;;;;;;;6.00;6.00;;;;;17.04;66.37;100421.16;5075112;28;45266;-64
2022/06/30 05:37:07;;;;;;;;;6.00;6.00;;;;;17.07;66.98;100436.00;5075720;27;45377;-65
2022/06/30 05:39:32;;;;;;;;;4.00;4.00;;;;;17.06;66.34;100429.88;5074586;28;45236;-67
2022/06/30 05:42:00;;;;;;;;;5.25;4.25;;;;;17.09;66.48;100431.44;5075029;27;45368;-66
2022/06/30 05:44:26;;;;;;;;;9.00;8.25;;;;;17.12;67.43;100433.03;5074490;27;45472;-65
2022/06/30 05:46:51;;;;;;;;;8.50;6.00;;;;;17.15;67.35;100431.00;5074518;28;45856;-64
2022/06/30 05:49:17;;;;;;;;;5.25;4.00;;;;;17.21;67.29;100427.09;5074556;28;45512;-66
2022/06/30 05:51:42;;;;;;;;;4.25;4.00;;;;;17.22;67.36;100437.59;5074599;27;46626;-67
2022/06/30 05:54:08;;;;;;;;;6.00;6.00;;;;;17.22;67.68;100436.75;5078442;27;45315;-66
2022/06/30 05:56:33;;;;;;;;;6.50;6.50;;;;;17.24;67.22;100442.81;5078918;27;45321;-65
2022/06/30 05:58:59;;;;;;;;;6.75;5.25;;;;;17.19;68.02;100431.66;5078696;28;45320;-65
2022/06/30 06:01:24;;;;;;;;;7.50;5.50;;;;;17.24;68.02;100440.16;5066771;27;46153;-65
2022/06/30 06:03:49;;;;;;;;;5.25;4.00;;;;;17.24;68.71;100429.53;5057643;28;45246;-65
2022/06/30 06:06:15;;;;;;;;;9.50;9.00;;;;;17.25;69.59;100430.34;5057984;28;45374;-65
2022/06/30 06:08:40;;;;;;;;;8.75;5.00;;;;;17.26;69.46;100435.56;5058402;28;45498;-66
2022/06/30 06:11:06;;;;;;;;;7.50;6.50;;;;;17.22;71.10;100418.16;5057675;28;46109;-66
2022/06/30 06:13:31;;;;;;;;;7.75;6.25;;;;;17.22;71.03;100420.81;5057894;28;45287;-65
2022/06/30 06:15:57;;;;;;;;;5.75;5.50;;;;;17.16;70.49;100424.72;5057763;28;45219;-64
2022/06/30 06:18:22;;;;;;;;;7.25;5.50;;;;;17.12;70.97;100428.56;5058117;28;45556;-68
2022/06/30 06:20:48;;;;;;;;;9.50;8.00;;;;;17.10;70.96;100427.00;5057551;28;46092;-66
2022/06/30 06:23:13;;;;;;;;;8.50;8.00;;;;;17.04;71.69;100418.50;5057692;28;45464;-66
2022/06/30 06:25:38;;;;;;;;;7.75;7.50;;;;;17.06;71.43;100421.91;5057266;28;45416;-67
2022/06/30 06:30:48;;;;;;;;;10.00;7.75;;;;;17.00;71.93;100395.75;5057396;28;45771;-65
2022/06/30 06:33:13;;;;;;;;;13.25;9.00;;;;;17.17;71.33;100418.47;5055425;28;45518;-65
2022/06/30 06:35:39;;;;;;;;;7.75;6.50;;;;;17.26;71.44;100432.91;5057808;28;45484;-65
2022/06/30 06:38:04;;;;;;;;;6.00;6.00;;;;;17.29;70.95;100422.06;5058015;28;45346;-65
2022/06/30 06:40:30;;;;;;;;;10.50;7.00;;;;;17.32;70.18;100415.66;5057555;28;45930;-64
2022/06/30 06:42:56;;;;;;;;;8.25;8.25;;;;;17.42;69.86;100434.50;5057014;28;45441;-64
2022/06/30 06:45:21;;;;;;;;;6.75;6.75;;;;;17.48;70.13;100431.38;5055999;28;45417;-66
2022/06/30 06:47:48;;;;;;;;;9.00;7.00;;;;;17.54;69.99;100427.44;5057335;28;45482;-65
2022/06/30 06:50:13;;;;;;;;;9.00;9.00;;;;;17.58;69.59;100432.41;5055548;28;48149;-64
2022/06/30 06:52:39;;;;;;;;;14.50;13.50;;;;;17.64;69.38;100439.94;5057093;28;45298;-66
2022/06/30 06:55:05;;;;;;;;;0.75;0.75;;;;;17.65;69.07;100439.00;5059738;28;45326;-66
2022/06/30 06:57:36;;;;;;;;;6.25;6.00;;;;;17.75;68.17;100454.28;5077351;28;45503;-63
2022/06/30 07:00:04;;;;;;;;;11.50;7.00;;;;;17.79;67.89;100463.75;5075108;28;47231;-65
2022/06/30 07:02:29;;;;;;;;;9.25;9.25;;;;;17.83;67.45;100462.56;5077020;28;45379;-65
2022/06/30 07:04:55;;;;;;;;;8.75;8.75;;;;;17.84;68.03;100474.91;5076216;28;45235;-65
2022/06/30 07:07:20;;;;;;;;;8.75;6.75;;;;;17.88;68.17;100476.38;5077240;27;45262;-64
2022/06/30 07:09:46;;;;;;;;;11.00;10.50;;;;;17.91;67.72;100481.47;5076662;27;46418;-67
2022/06/30 07:12:11;;;;;;;;;7.75;7.75;;;;;17.92;67.35;100467.19;5075721;27;45381;-65
2022/06/30 07:14:37;;;;;;;;;9.50;9.50;;;;;17.91;67.68;100481.47;5065937;28;45482;-65
2022/06/30 07:17:02;;;;;;;;;10.00;9.00;;;;;17.89;67.35;100478.06;5065717;27;45439;-64
2022/06/30 07:19:28;;;;;;;;;9.00;9.00;;;;;17.85;67.93;100481.91;5079007;27;45712;-64
2022/06/30 07:21:53;;;;;;;;;8.75;8.00;;;;;17.79;67.44;100472.59;5076985;27;46153;-67
2022/06/30 07:24:19;;;;;;;;;8.50;8.50;;;;;17.71;67.79;100474.94;5075089;28;45803;-67
2022/06/30 07:26:44;;;;;;;;;10.75;10.50;;;;;17.71;68.65;100482.06;5076380;28;45568;-66
2022/06/30 07:29:13;;;;;;;;;7.50;7.25;;;;;17.67;68.25;100484.13;5076315;28;46079;-67
2022/06/30 07:31:39;;;;;;;;;8.50;6.75;;;;;17.63;68.18;100483.47;5076089;28;45260;-66
2022/06/30 07:34:05;;;;;;;;;6.00;6.00;;;;;17.61;67.82;100492.53;5076712;27;45345;-66
2022/06/30 07:36:42;;;;;;;;;6.00;5.75;;;;;17.56;68.00;100484.03;5076571;28;45276;-65
2022/06/30 07:39:07;;;;;;;;;6.25;6.25;;;;;17.53;68.11;100479.78;5075440;27;48139;-67
2022/06/30 07:41:42;;;;;;;;;6.00;6.00;;;;;17.48;68.01;100468.63;5076703;27;45586;-66
2022/06/30 07:44:07;;;;;;;;;9.50;8.00;;;;;17.46;68.31;100470.53;5076926;27;45755;-67
2022/06/30 07:46:33;;;;;;;;;2.00;0.75;;;;;17.36;67.27;100455.22;5077037;28;45240;-67
2022/06/30 07:49:02;;;;;;;;;9.00;7.50;;;;;17.34;67.82;100457.16;5075242;27;46007;-68
2022/06/30 07:51:28;;;;;;;;;8.00;6.25;;;;;17.40;67.93;100471.81;5090288;27;45459;-66
2022/06/30 07:53:59;;;;;;;;;4.50;4.50;;;;;17.38;67.95;100473.72;5075805;27;45274;-69
2022/06/30 07:56:25;;;;;;;;;9.00;7.25;;;;;17.34;66.90;100478.41;5076976;27;45491;-67
2022/06/30 07:58:50;;;;;;;;;3.75;3.75;;;;;17.35;66.74;100485.44;5073627;28;46837;-65
2022/06/30 08:01:19;;;;;;;;;8.75;5.50;;;;;17.40;67.65;100486.91;5074445;27;45476;-65
2022/06/30 08:03:44;;;;;;;;;9.00;7.50;;;;;17.47;68.65;100477.53;5075260;27;45469;-67
2022/06/30 08:06:10;;;;;;;;;5.00;5.00;;;;;17.53;67.86;100485.09;5075397;27;45610;-65
2022/06/30 08:08:36;;;;;;;;;15.50;15.50;;;;;17.51;68.11;100465.72;5075508;28;46378;-66
2022/06/30 08:11:02;;;;;;;;;6.25;5.50;;;;;17.55;66.63;100472.53;5076134;27;45332;-65
2022/06/30 08:13:27;;;;;;;;;12.50;10.00;;;;;17.43;66.96;100460.94;5076427;27;45365;-65
2022/06/30 08:15:52;;;;;;;;;5.75;4.75;;;;;17.34;66.93;100453.63;5075295;27;45675;-65
2022/06/30 08:18:18;;;;;;;;;6.25;3.00;;;;;17.36;66.41;100462.34;5075410;27;45572;-65
2022/06/30 08:20:43;;;;;;;;;4.25;2.75;;;;;17.31;66.72;100468.00;5075998;27;45381;-66
2022/06/30 08:23:08;;;;;;;;;5.25;5.25;;;;;17.27;66.62;100468.31;5075599;27;45404;-64
2022/06/30 08:25:34;;;;;;;;;4.00;4.00;;;;;17.22;67.39;100469.47;5076061;27;45290;-65
2022/06/30 08:27:59;;;;;;;;;7.00;5.00;;;;;17.20;67.49;100465.25;5075644;27;46126;-66
2022/06/30 08:30:25;;;;;;;;;5.00;5.00;;;;;17.13;67.28;100454.19;5075642;27;45853;-65
2022/06/30 08:32:50;;;;;;;;;9.75;9.00;;;;;17.06;68.02;100455.56;5075570;27;45232;-64
2022/06/30 08:35:16;;;;;;;;;5.00;5.00;;;;;16.99;67.98;100449.84;5091409;27;45429;-65
2022/06/30 08:37:42;;;;;;;;;6.50;6.50;;;;;16.94;69.94;100454.56;5075619;27;46120;-64
2022/06/30 08:42:53;;;;;;;;;6.50;5.75;;;;;16.74;69.62;100459.44;5075218;28;45514;-65
2022/06/30 08:45:19;;;;;;;;;5.75;5.75;;;;;16.67;69.43;100466.13;5075275;27;45513;-65
2022/06/30 08:47:46;;;;;;;;;7.00;6.50;;;;;16.62;69.43;100465.59;5073829;28;47809;-64
2022/06/30 08:50:14;;;;;;;;;6.75;6.00;;;;;16.66;69.83;100453.81;5075306;27;45236;-65
2022/06/30 08:52:59;;;;;;;;;5.00;4.25;;;;;16.74;69.73;100464.75;5075067;27;45353;-67
2022/06/30 08:55:32;;;;;;;;;18.25;14.00;;;;;16.83;70.19;100463.31;5074883;27;45389;-66
2022/06/30 08:58:02;;;;;;;;;12.00;11.50;;;;;16.88;70.14;100452.34;5074317;27;45368;-65
2022/06/30 09:00:28;;;;;;;;;6.50;6.00;;;;;16.92;69.06;100451.16;5073263;28;45858;-65
2022/06/30 09:02:53;;;;;;;;;5.75;5.00;;;;;16.88;67.98;100439.94;5075000;27;45366;-65
2022/06/30 09:05:19;;;;;;;;;5.00;5.00;;;;;16.86;67.43;100452.47;5075095;27;45417;-64
2022/06/30 09:07:44;;;;;;;;;7.50;4.00;;;;;16.85;67.71;100452.56;5075563;27;46446;-65
2022/06/30 09:10:10;;;;;;;;;9.75;9.75;;;;;16.87;67.46;100446.19;5073568;28;45340;-64
2022/06/30 09:12:35;;;;;;;;;5.00;3.50;;;;;16.84;67.49;100438.44;5075069;27;45362;-65
2022/06/30 09:15:01;;;;;;;;;3.25;3.25;;;;;16.85;66.88;100431.31;5074912;27;45465;-66
2022/06/30 09:17:29;;;;;;;;;4.00;4.00;;;;;16.77;67.46;100432.69;5074465;27;46913;-66
2022/06/30 09:19:55;;;;;;;;;7.00;7.00;;;;;16.67;68.12;100430.78;5074471;27;45427;-65
2022/06/30 09:22:22;;;;;;;;;5.25;3.75;;;;;16.62;68.30;100423.97;5074724;27;45294;-67
2022/06/30 09:24:56;;;;;;;;;8.50;8.50;;;;;16.66;69.01;100432.56;5075171;27;45568;-65
2022/06/30 09:27:23;;;;;;;;;6.75;5.75;;;;;16.64;71.49;100437.13;5075477;27;45386;-65
2022/06/30 09:29:52;;;;;;;;;7.25;6.00;;;;;16.58;72.74;100446.38;5076920;28;45383;-66
2022/06/30 09:32:18;;;;;;;;;7.00;5.75;;;;;16.37;75.62;100456.63;5077209;27;45280;-65
2022/06/30 09:34:44;;;;;;;;;8.50;7.75;;;;;16.25;77.25;100460.09;5078829;27;45470;-65
2022/06/30 09:37:36;;;;;;;;;10.00;8.50;;;;;16.23;77.63;100462.00;5077951;27;46023;-67
2022/06/30 09:40:02;;;;;;;;;12.00;12.00;;;;;16.29;77.62;100457.13;5076882;28;45224;-66
2022/06/30 09:42:37;;;;;;;;;8.00;8.00;;;;;16.40;77.29;100460.88;5078118;28;45456;-65
2022/06/30 09:45:07;;;;;;;;;10.50;9.50;;;;;16.48;73.41;100467.38;5078179;28;45524;-67
2022/06/30 09:47:33;;;;;;;;;11.75;10.75;;;;;16.54;71.89;100466.13;5077314;27;45363;-66
2022/06/30 09:50:05;;;;;;;;;8.00;8.00;;;;;16.57;70.51;100467.72;5077665;27;45740;-65
2022/06/30 09:52:32;;;;;;;;;12.50;9.75;;;;;16.63;71.05;100464.66;5077742;28;45317;-66
2022/06/30 09:55:04;;;;;;;;;12.25;8.00;;;;;16.70;70.93;100463.28;5077719;28;45328;-67
2022/06/30 09:57:32;;;;;;;;;7.00;7.00;;;;;16.75;71.38;100470.94;5076398;28;45466;-66
2022/06/30 09:59:59;;;;;;;;;9.75;8.25;;;;;16.78;72.14;100460.94;5077534;27;45556;-66
2022/06/30 10:02:48;;;;;;;;;10.50;8.00;;;;;16.87;71.75;100454.16;5077452;27;45457;-65
2022/06/30 10:05:16;;;;;;;;;8.75;8.75;;;;;16.96;71.24;100467.78;5077641;27;45413;-66
2022/06/30 10:07:42;;;;;;;;;9.00;9.00;;;;;16.97;70.22;100470.38;5077305;27;45505;-65
2022/06/30 10:10:13;;;;;;;;;8.00;8.00;;;;;17.00;71.25;100466.63;5077200;27;45364;-65
2022/06/30 10:12:40;;;;;;;;;7.25;7.00;;;;;17.05;69.50;100469.81;5077245;27;45223;-66
2022/06/30 10:15:08;;;;;;;;;7.25;6.00;;;;;16.99;69.13;100473.75;5093149;27;45359;-66
2022/06/30 10:17:37;;;;;;;;;7.25;7.25;;;;;16.99;70.14;100476.41;5076972;28;46909;-65
2022/06/30 10:20:03;;;;;;;;;8.00;8.00;;;;;16.99;69.54;100468.44;5092668;27;45496;-66
2022/06/30 10:22:29;;;;;;;;;7.00;7.00;;;;;17.06;69.32;100479.50;5077318;27;45354;-65
2022/06/30 10:24:56;;;;;;;;;8.50;6.25;;;;;17.08;68.79;100489.06;5077908;27;45255;-66
2022/06/30 10:27:24;;;;;;;;;8.50;7.25;;;;;17.05;68.10;100488.41;5093077;27;46929;-64
2022/06/30 10:29:54;;;;;;;;;7.50;7.50;;;;;17.03;68.71;100496.50;5077571;27;45510;-65
2022/06/30 10:32:26;;;;;;;;;9.50;9.50;;;;;16.99;68.25;100508.31;5077493;27;45378;-65
2022/06/30 10:35:04;;;;;;;;;11.25;10.75;;;;;16.87;68.36;100517.91;5077715;28;45312;-66
2022/06/30 10:37:44;;;;;;;;;17.75;12.75;;;;;16.64;69.59;100519.47;5076967;27;46531;-65
2022/06/30 10:40:25;;;;;;;;;12.50;10.00;;;;;16.52;69.90;100520.28;5076320;28;45350;-65
2022/06/30 10:42:56;;;;;;;;;10.50;10.50;;;;;16.37;70.88;100512.38;5077431;27;45437;-65
2022/06/30 10:45:30;;;;;;;;;12.75;12.75;;;;;16.31;71.70;100523.41;5077574;28;45378;-66
2022/06/30 10:48:06;;;;;;;;;10.50;8.25;;;;;16.30;72.08;100529.66;5077057;28;46372;-66
2022/06/30 10:50:40;;;;;;;;;8.25;7.75;;;;;16.34;72.54;100531.16;5077197;27;45432;-66
2022/06/30 10:53:08;;;;;;;;;14.25;9.50;;;;;16.34;71.32;100536.47;5077071;28;45296;-65
2022/06/30 10:55:44;;;;;;;;;10.50;7.25;;;;;16.13;72.09;100517.47;5076832;28;45470;-66
2022/06/30 10:58:10;;;;;;;;;12.00;11.25;;;;;16.18;74.38;100534.81;5077088;28;46298;-65
2022/06/30 11:00:58;;;;;;;;;9.50;9.00;;;;;16.25;75.78;100550.34;5076981;27;45417;-66
2022/06/30 11:03:34;;;;;;;;;11.00;9.25;;;;;16.32;75.28;100544.50;5076688;27;45216;-64
2022/06/30 11:06:02;;;;;;;;;8.50;8.50;;;;;16.41;75.11;100540.44;5075513;27;45566;-66
2022/06/30 11:08:46;;;;;;;;;12.50;12.50;;;;;16.55;74.83;100546.63;5075947;28;45437;-66
2022/06/30 11:11:24;;;;;;;;;9.00;7.25;;;;;16.64;74.29;100549.53;5076179;27;45560;-66
2022/06/30 11:14:10;;;;;;;;;9.00;8.75;;;;;16.70;73.56;100545.59;5077236;27;45423;-66
2022/06/30 11:16:38;;;;;;;;;7.50;7.50;;;;;16.83;73.23;100535.03;5076813;28;45401;-67
2022/06/30 11:19:12;;;;;;;;;7.00;7.00;;;;;17.01;74.24;100540.06;5075190;28;45433;-65
2022/06/30 11:21:42;;;;;;;;;12.50;10.25;;;;;17.19;72.52;100536.16;5091788;27;45358;-66
2022/06/30 11:24:10;;;;;;;;;8.00;8.00;;;;;17.26;71.43;100528.63;5076656;28;45233;-67
2022/06/30 11:29:23;;;;;;;;;6.25;6.00;;;;;17.40;71.56;100550.72;5076006;28;45424;-66
2022/06/30 11:31:50;;;;;;;;;9.00;9.00;;;;;17.42;70.86;100547.00;5076266;27;45330;-65
2022/06/30 11:34:19;;;;;;;;;8.50;7.00;;;;;17.44;71.51;100546.91;5074974;28;45317;-66
2022/06/30 11:36:46;;;;;;;;;11.50;10.00;;;;;17.46;71.32;100532.53;5075979;27;45596;-64
2022/06/30 11:39:20;;;;;;;;;8.50;8.50;;;;;17.49;69.88;100523.50;5076090;27;45618;-65
2022/06/30 11:42:03;;;;;;;;;9.25;9.00;;;;;17.44;68.80;100510.50;5075966;27;45381;-64
2022/06/30 11:44:38;;;;;;;;;9.50;9.50;;;;;17.52;69.74;100512.66;5074648;28;45418;-67